Thurgau — HBLF — position and weather

sailwx.info

Track history (hours):
 
Tides and Currents Weather Stations Pressure Air Temp Water Temp Dewpoint Dewpoint Depression Visibility Wind Speed Wind Dir Waves Ship Positions

Thurgau

Last reported at 2015-Apr-27 12:09 UTC. Time now 2015-May-04 03:59 UTC.
Position N 54°53' E 015°35'.

Length 180 m; draft 6.9 m.

Type: Cargo ship. MMSI: 269217000.

Date/timePositionNaut miles runAvg speedWind from/ knotsBaromVisibWave heightAir tempDewpointWater temp
2015-Apr-27 12:09N 54°53' E 015°35'1112.7
2015-Apr-27 11:15N 54°48' E 015°17'2312.8
2015-Apr-27 09:27N 54°38' E 014°41'1312.6
2015-Apr-27 08:23N 54°32' E 014°21'1012.2
2015-Apr-27 07:33N 54°27' E 014°06'1211.6
2015-Apr-27 06:33N 54°16' E 014°10'1212.3
2015-Apr-27 05:33N 54°04' E 014°15'10 9.9
2015-Apr-27 04:33N 53°54' E 014°15'5 4.9
2015-Apr-27 03:33N 53°49' E 014°19'1010.4
2015-Apr-27 02:33N 53°41' E 014°30'9 8.8
2015-Apr-27 01:34N 53°33' E 014°36'7 7.2
2015-Apr-27 00:33N 53°26' E 014°36'2 2.0
2015-Apr-26 23:33N 53°24' E 014°36'0 0.0
2015-Apr-26 22:33N 53°24' E 014°36'0 0.0
2015-Apr-26 21:33N 53°24' E 014°36'0 0.0
2015-Apr-26 20:33N 53°24' E 014°36'0 0.0
2015-Apr-26 19:33N 53°24' E 014°36'0 0.0
2015-Apr-26 18:33N 53°24' E 014°36'0 0.0
2015-Apr-26 17:33N 53°24' E 014°36'0 0.0
2015-Apr-26 16:33N 53°24' E 014°36'0 0.0
2015-Apr-26 15:33N 53°24' E 014°36'0 0.0
2015-Apr-26 14:33N 53°24' E 014°36'0 0.0
2015-Apr-26 13:33N 53°24' E 014°36'0 0.0
2015-Apr-26 12:33N 53°24' E 014°36'0 0.0
2015-Apr-26 11:33N 53°24' E 014°36'0 0.0
2015-Apr-26 10:33N 53°24' E 014°36'0 0.0
2015-Apr-26 09:33N 53°24' E 014°36'0 0.0
2015-Apr-26 08:33N 53°24' E 014°36'0 0.0
2015-Apr-26 07:33N 53°24' E 014°36'0 0.0
2015-Apr-26 06:33N 53°24' E 014°36'0 0.0
2015-Apr-26 05:33N 53°24' E 014°36'0 0.0
2015-Apr-26 04:33N 53°24' E 014°36'0 0.0
2015-Apr-26 03:33N 53°24' E 014°36'0 0.0
2015-Apr-26 02:33N 53°24' E 014°36'0 0.0
2015-Apr-26 01:33N 53°24' E 014°36'0 0.0
2015-Apr-26 00:33N 53°24' E 014°36'0 0.0
2015-Apr-25 23:33N 53°24' E 014°36'0 0.0
2015-Apr-25 22:33N 53°24' E 014°36'0 0.0
2015-Apr-25 21:30N 53°24' E 014°36'0 0.0
2015-Apr-25 20:33N 53°24' E 014°36'0 0.0
2015-Apr-25 19:33N 53°24' E 014°36'0 0.0
2015-Apr-25 18:33N 53°24' E 014°36'0 0.0
2015-Apr-25 17:33N 53°24' E 014°36'0 0.0
2015-Apr-25 16:33N 53°24' E 014°36'0 0.0
2015-Apr-25 15:33N 53°24' E 014°36'0 0.0
2015-Apr-25 14:33N 53°24' E 014°36'0 0.0
2015-Apr-25 13:33N 53°24' E 014°36'0 0.0
2015-Apr-25 12:33N 53°24' E 014°36'0 0.0
2015-Apr-25 11:33N 53°24' E 014°36'0 0.0
2015-Apr-25 10:33N 53°24' E 014°36'0 0.0
2015-Apr-25 09:33N 53°24' E 014°36'0 0.0
2015-Apr-25 08:33N 53°24' E 014°36'0 0.0
2015-Apr-25 07:33N 53°24' E 014°36'0 0.0
2015-Apr-25 06:33N 53°24' E 014°36'0 0.0
2015-Apr-25 05:33N 53°24' E 014°36'0 0.0
2015-Apr-25 04:33N 53°24' E 014°36'0 0.0
2015-Apr-25 03:33N 53°24' E 014°36'0 0.0
2015-Apr-25 02:33N 53°24' E 014°36'0 0.0
2015-Apr-25 01:33N 53°24' E 014°36'0 0.0
2015-Apr-25 00:33N 53°24' E 014°36'0 0.0
2015-Apr-24 23:33N 53°24' E 014°36'0 0.0
2015-Apr-24 22:33N 53°24' E 014°36'0 0.0
2015-Apr-24 21:33N 53°24' E 014°36'0 0.0
2015-Apr-24 20:33N 53°24' E 014°36'0 0.0
2015-Apr-24 19:33N 53°24' E 014°36'0 0.0
2015-Apr-24 18:33N 53°24' E 014°36'0 0.0
2015-Apr-24 17:33N 53°24' E 014°36'0 0.3
2015-Apr-24 16:33N 53°24' E 014°36'4 4.4
2015-Apr-24 15:33N 53°29' E 014°37'7 7.1
2015-Apr-24 14:33N 53°36' E 014°36'1010.4
2015-Apr-24 13:34N 53°44' E 014°26'9 8.6
2015-Apr-24 12:34N 53°51' E 014°17'7 6.5
2015-Apr-24 11:33N 53°58' E 014°16'8 8.3
2015-Apr-24 10:33N 54°06' E 014°13'1010.2
2015-Apr-24 09:33N 54°16' E 014°08'5 4.8
2015-Apr-24 08:33N 54°21' E 014°07'1 0.7
2015-Apr-24 07:34N 54°20' E 014°07'5 5.5
2015-Apr-24 06:33N 54°25' E 014°05'1313.3
2015-Apr-24 05:33N 54°36' E 013°53'1414.0
2015-Apr-24 04:33N 54°48' E 013°38'2813.8
2015-Apr-24 02:33N 55°08' E 013°06'1313.3
2015-Apr-24 01:33N 55°16' E 012°47'10 9.8
2015-Apr-24 00:33N 55°24' E 012°39'1111.4
2015-Apr-23 23:33N 55°36' E 012°42'1212.0
2015-Apr-23 22:33N 55°48' E 012°42'1212.4
2015-Apr-23 21:33N 56°00' E 012°40'1212.0
2015-Apr-23 20:33N 56°09' E 012°26'1010.5
2015-Apr-23 19:34N 56°15' E 012°10'12 9.4
2015-Apr-23 18:15N 56°26' E 012°00'810.4
2015-Apr-23 17:31N 56°33' E 011°57'1212.1
2015-Apr-23 16:34N 56°45' E 011°52'1313.4
2015-Apr-23 15:33N 56°57' E 011°44'1313.2
2015-Apr-23 14:33N 57°10' E 011°36'1313.2
2015-Apr-23 13:33N 57°22' E 011°28'1212.5
2015-Apr-23 12:33N 57°32' E 011°14'1313.3
2015-Apr-23 11:33N 57°41' E 010°56'1413.7
2015-Apr-23 10:34N 57°47' E 010°33'1514.5
2015-Apr-23 09:33N 57°47' E 010°06'1413.8
2015-Apr-23 08:33N 57°43' E 009°41'9912.3
2015-Apr-23 00:31N 56°33' E 007°32'18712.3
2015-Apr-22 09:18N 53°50' E 004°52'2512.7
2015-Apr-22 07:20N 53°26' E 004°42'2514.0
2015-Apr-22 05:31N 53°03' E 004°23'1313.9
2015-Apr-22 04:33N 52°51' E 004°14'1413.7
2015-Apr-22 03:33N 52°40' E 004°00'1313.0
2015-Apr-22 02:32N 52°31' E 003°45'1312.7
2015-Apr-22 01:31N 52°21' E 003°30'1212.2
2015-Apr-22 00:31N 52°13' E 003°16'2511.4
2015-Apr-21 22:20N 51°54' E 002°49'910.9
2015-Apr-21 21:33N 51°48' E 002°40'1111.0
2015-Apr-21 20:33N 51°40' E 002°27'1211.8
2015-Apr-21 19:33N 51°31' E 002°15'1212.3
2015-Apr-21 18:33N 51°22' E 002°02'1313.0
2015-Apr-21 17:33N 51°12' E 001°48'1413.6
2015-Apr-21 16:34N 51°02' E 001°35'1414.2
2015-Apr-21 15:34N 50°49' E 001°23'1312.7
2015-Apr-21 14:33N 50°38' E 001°13'1512.7
2015-Apr-21 13:24N 50°30' E 000°55'1312.8
2015-Apr-21 12:26N 50°26' E 000°36'8914.5
2015-Apr-21 06:17N 50°03' W 001°38'811.1
2015-Apr-21 05:33N 50°00' W 001°50'10 9.6
2015-Apr-21 04:33N 49°58' W 002°05'9 8.6
2015-Apr-21 03:33N 49°56' W 002°18'9 8.8
2015-Apr-21 02:33N 49°53' W 002°31'  
2015-Apr-18 17:28N 39°13' W 009°50'1112.1
2015-Apr-18 16:33N 39°02' W 009°49'1212.1
2015-Apr-18 15:33N 38°50' W 009°50'1212.0
2015-Apr-18 14:33N 38°38' W 009°49'1212.2
2015-Apr-18 13:33N 38°26' W 009°46'1212.4
2015-Apr-18 12:33N 38°15' W 009°41'2512.4
2015-Apr-18 10:32N 37°50' W 009°35'1311.7
2015-Apr-18 09:26N 37°38' W 009°31'10010.9
2015-Apr-18 00:19N 36°27' W 008°03'13212.3
2015-Apr-17 13:33N 36°01' W 005°22'  
Track history (hours):
 
Tides and Currents Weather Stations Pressure Air Temp Water Temp Dewpoint Dewpoint Depression Visibility Wind Speed Wind Dir Waves Ship Positions

Thurgau

Last reported at 2015-Apr-27 12:09 UTC. Time now 2015-May-04 03:59 UTC.
Position N 54°53' E 015°35'.

Length 180 m; draft 6.9 m.

Type: Cargo ship. MMSI: 269217000.

Date/timePositionNaut miles runAvg speedWind from/ knotsBaromVisibWave heightAir tempDewpointWater temp
2015-Apr-27 12:09N 54°53' E 015°35'1112.7
2015-Apr-27 11:15N 54°48' E 015°17'2312.8
2015-Apr-27 09:27N 54°38' E 014°41'1312.6
2015-Apr-27 08:23N 54°32' E 014°21'1012.2
2015-Apr-27 07:33N 54°27' E 014°06'1211.6
2015-Apr-27 06:33N 54°16' E 014°10'1212.3
2015-Apr-27 05:33N 54°04' E 014°15'10 9.9
2015-Apr-27 04:33N 53°54' E 014°15'5 4.9
2015-Apr-27 03:33N 53°49' E 014°19'1010.4
2015-Apr-27 02:33N 53°41' E 014°30'9 8.8
2015-Apr-27 01:34N 53°33' E 014°36'7 7.2
2015-Apr-27 00:33N 53°26' E 014°36'2 2.0
2015-Apr-26 23:33N 53°24' E 014°36'0 0.0
2015-Apr-26 22:33N 53°24' E 014°36'0 0.0
2015-Apr-26 21:33N 53°24' E 014°36'0 0.0
2015-Apr-26 20:33N 53°24' E 014°36'0 0.0
2015-Apr-26 19:33N 53°24' E 014°36'0 0.0
2015-Apr-26 18:33N 53°24' E 014°36'0 0.0
2015-Apr-26 17:33N 53°24' E 014°36'0 0.0
2015-Apr-26 16:33N 53°24' E 014°36'0 0.0
2015-Apr-26 15:33N 53°24' E 014°36'0 0.0
2015-Apr-26 14:33N 53°24' E 014°36'0 0.0
2015-Apr-26 13:33N 53°24' E 014°36'0 0.0
2015-Apr-26 12:33N 53°24' E 014°36'0 0.0
2015-Apr-26 11:33N 53°24' E 014°36'0 0.0
2015-Apr-26 10:33N 53°24' E 014°36'0 0.0
2015-Apr-26 09:33N 53°24' E 014°36'0 0.0
2015-Apr-26 08:33N 53°24' E 014°36'0 0.0
2015-Apr-26 07:33N 53°24' E 014°36'0 0.0
2015-Apr-26 06:33N 53°24' E 014°36'0 0.0
2015-Apr-26 05:33N 53°24' E 014°36'0 0.0
2015-Apr-26 04:33N 53°24' E 014°36'0 0.0
2015-Apr-26 03:33N 53°24' E 014°36'0 0.0
2015-Apr-26 02:33N 53°24' E 014°36'0 0.0
2015-Apr-26 01:33N 53°24' E 014°36'0 0.0
2015-Apr-26 00:33N 53°24' E 014°36'0 0.0
2015-Apr-25 23:33N 53°24' E 014°36'0 0.0
2015-Apr-25 22:33N 53°24' E 014°36'0 0.0
2015-Apr-25 21:30N 53°24' E 014°36'0 0.0
2015-Apr-25 20:33N 53°24' E 014°36'0 0.0
2015-Apr-25 19:33N 53°24' E 014°36'0 0.0
2015-Apr-25 18:33N 53°24' E 014°36'0 0.0
2015-Apr-25 17:33N 53°24' E 014°36'0 0.0
2015-Apr-25 16:33N 53°24' E 014°36'0 0.0
2015-Apr-25 15:33N 53°24' E 014°36'0 0.0
2015-Apr-25 14:33N 53°24' E 014°36'0 0.0
2015-Apr-25 13:33N 53°24' E 014°36'0 0.0
2015-Apr-25 12:33N 53°24' E 014°36'0 0.0
2015-Apr-25 11:33N 53°24' E 014°36'0 0.0
2015-Apr-25 10:33N 53°24' E 014°36'0 0.0
2015-Apr-25 09:33N 53°24' E 014°36'0 0.0
2015-Apr-25 08:33N 53°24' E 014°36'0 0.0
2015-Apr-25 07:33N 53°24' E 014°36'0 0.0
2015-Apr-25 06:33N 53°24' E 014°36'0 0.0
2015-Apr-25 05:33N 53°24' E 014°36'0 0.0
2015-Apr-25 04:33N 53°24' E 014°36'0 0.0
2015-Apr-25 03:33N 53°24' E 014°36'0 0.0
2015-Apr-25 02:33N 53°24' E 014°36'0 0.0
2015-Apr-25 01:33N 53°24' E 014°36'0 0.0
2015-Apr-25 00:33N 53°24' E 014°36'0 0.0
2015-Apr-24 23:33N 53°24' E 014°36'0 0.0
2015-Apr-24 22:33N 53°24' E 014°36'0 0.0
2015-Apr-24 21:33N 53°24' E 014°36'0 0.0
2015-Apr-24 20:33N 53°24' E 014°36'0 0.0
2015-Apr-24 19:33N 53°24' E 014°36'0 0.0
2015-Apr-24 18:33N 53°24' E 014°36'0 0.0
2015-Apr-24 17:33N 53°24' E 014°36'0 0.3
2015-Apr-24 16:33N 53°24' E 014°36'4 4.4
2015-Apr-24 15:33N 53°29' E 014°37'7 7.1
2015-Apr-24 14:33N 53°36' E 014°36'1010.4
2015-Apr-24 13:34N 53°44' E 014°26'9 8.6
2015-Apr-24 12:34N 53°51' E 014°17'7 6.5
2015-Apr-24 11:33N 53°58' E 014°16'8 8.3
2015-Apr-24 10:33N 54°06' E 014°13'1010.2
2015-Apr-24 09:33N 54°16' E 014°08'5 4.8
2015-Apr-24 08:33N 54°21' E 014°07'1 0.7
2015-Apr-24 07:34N 54°20' E 014°07'5 5.5
2015-Apr-24 06:33N 54°25' E 014°05'1313.3
2015-Apr-24 05:33N 54°36' E 013°53'1414.0
2015-Apr-24 04:33N 54°48' E 013°38'2813.8
2015-Apr-24 02:33N 55°08' E 013°06'1313.3
2015-Apr-24 01:33N 55°16' E 012°47'10 9.8
2015-Apr-24 00:33N 55°24' E 012°39'1111.4
2015-Apr-23 23:33N 55°36' E 012°42'1212.0
2015-Apr-23 22:33N 55°48' E 012°42'1212.4
2015-Apr-23 21:33N 56°00' E 012°40'1212.0
2015-Apr-23 20:33N 56°09' E 012°26'1010.5
2015-Apr-23 19:34N 56°15' E 012°10'12 9.4
2015-Apr-23 18:15N 56°26' E 012°00'810.4
2015-Apr-23 17:31N 56°33' E 011°57'1212.1
2015-Apr-23 16:34N 56°45' E 011°52'1313.4
2015-Apr-23 15:33N 56°57' E 011°44'1313.2
2015-Apr-23 14:33N 57°10' E 011°36'1313.2
2015-Apr-23 13:33N 57°22' E 011°28'1212.5
2015-Apr-23 12:33N 57°32' E 011°14'1313.3
2015-Apr-23 11:33N 57°41' E 010°56'1413.7
2015-Apr-23 10:34N 57°47' E 010°33'1514.5
2015-Apr-23 09:33N 57°47' E 010°06'1413.8
2015-Apr-23 08:33N 57°43' E 009°41'9912.3
2015-Apr-23 00:31N 56°33' E 007°32'18712.3
2015-Apr-22 09:18N 53°50' E 004°52'2512.7
2015-Apr-22 07:20N 53°26' E 004°42'2514.0
2015-Apr-22 05:31N 53°03' E 004°23'1313.9
2015-Apr-22 04:33N 52°51' E 004°14'1413.7
2015-Apr-22 03:33N 52°40' E 004°00'1313.0
2015-Apr-22 02:32N 52°31' E 003°45'1312.7
2015-Apr-22 01:31N 52°21' E 003°30'1212.2
2015-Apr-22 00:31N 52°13' E 003°16'2511.4
2015-Apr-21 22:20N 51°54' E 002°49'910.9
2015-Apr-21 21:33N 51°48' E 002°40'1111.0
2015-Apr-21 20:33N 51°40' E 002°27'1211.8
2015-Apr-21 19:33N 51°31' E 002°15'1212.3
2015-Apr-21 18:33N 51°22' E 002°02'1313.0
2015-Apr-21 17:33N 51°12' E 001°48'1413.6
2015-Apr-21 16:34N 51°02' E 001°35'1414.2
2015-Apr-21 15:34N 50°49' E 001°23'1312.7
2015-Apr-21 14:33N 50°38' E 001°13'1512.7
2015-Apr-21 13:24N 50°30' E 000°55'1312.8
2015-Apr-21 12:26N 50°26' E 000°36'8914.5
2015-Apr-21 06:17N 50°03' W 001°38'811.1
2015-Apr-21 05:33N 50°00' W 001°50'10 9.6
2015-Apr-21 04:33N 49°58' W 002°05'9 8.6
2015-Apr-21 03:33N 49°56' W 002°18'9 8.8
2015-Apr-21 02:33N 49°53' W 002°31'  
2015-Apr-18 17:28N 39°13' W 009°50'1112.1
2015-Apr-18 16:33N 39°02' W 009°49'1212.1
2015-Apr-18 15:33N 38°50' W 009°50'1212.0
2015-Apr-18 14:33N 38°38' W 009°49'1212.2
2015-Apr-18 13:33N 38°26' W 009°46'1212.4
2015-Apr-18 12:33N 38°15' W 009°41'2512.4
2015-Apr-18 10:32N 37°50' W 009°35'1311.7
2015-Apr-18 09:26N 37°38' W 009°31'10010.9
2015-Apr-18 00:19N 36°27' W 008°03'13212.3
2015-Apr-17 13:33N 36°01' W 005°22'  

Dump ship's entire track history